Time;durP1;ratioP1;P1;durP2;ratioP2;P2;SDS_P1;SDS_P2;PMS_P1;PMS_P2;Temp;Humidity;BMP_temperature;BMP_pressure;BME280_temperature;BME280_humidity;BME280_pressure;Samples;Min_cycle;Max_cycle;Signal;HPM_P1;HPM_P2
2021/11/10 00:02:06;;;;;;;13.90;8.60;;;12.70;99.90;;;;;;5052918;28;20092;-73
2021/11/10 00:04:32;;;;;;;12.90;8.27;;;12.90;99.90;;;;;;5052944;28;20043;-70
2021/11/10 00:06:58;;;;;;;12.57;8.73;;;12.90;99.90;;;;;;5052943;28;20040;-69
2021/11/10 00:09:23;;;;;;;16.20;9.63;;;12.90;99.90;;;;;;5053134;28;20021;-70
2021/11/10 00:11:49;;;;;;;13.90;8.80;;;12.90;99.90;;;;;;5052811;28;20041;-70
2021/11/10 00:14:15;;;;;;;12.57;8.52;;;12.90;99.90;;;;;;5052867;28;20068;-72
2021/11/10 00:16:41;;;;;;;11.65;7.75;;;12.80;99.90;;;;;;5052753;28;20041;-73
2021/11/10 00:19:06;;;;;;;13.00;8.27;;;12.70;99.90;;;;;;5052830;28;20017;-71
2021/11/10 00:21:32;;;;;;;12.02;8.65;;;12.70;99.90;;;;;;5052797;28;20029;-72
2021/11/10 00:23:58;;;;;;;14.35;9.38;;;12.70;99.90;;;;;;5052792;28;20116;-71
2021/11/10 00:26:25;;;;;;;13.52;9.68;;;12.50;99.90;;;;;;5053049;28;20056;-71
2021/11/10 00:28:51;;;;;;;14.40;9.10;;;12.30;99.90;;;;;;5052725;28;20028;-70
2021/11/10 00:31:18;;;;;;;13.10;9.05;;;12.30;99.90;;;;;;5052691;28;20123;-70
2021/11/10 00:33:44;;;;;;;17.80;10.93;;;12.20;99.90;;;;;;5052705;28;20025;-73
2021/11/10 00:36:10;;;;;;;13.55;8.48;;;12.20;99.90;;;;;;5053085;28;20486;-69
2021/11/10 00:38:37;;;;;;;13.07;9.75;;;12.20;99.90;;;;;;5052620;28;20108;-71
2021/11/10 00:41:04;;;;;;;14.73;10.18;;;12.30;99.90;;;;;;5052587;28;20021;-71
2021/11/10 00:43:30;;;;;;;18.13;10.23;;;12.20;99.90;;;;;;5053618;28;20021;-71
2021/11/10 00:45:56;;;;;;;17.08;11.02;;;12.10;99.90;;;;;;5056298;28;20099;-75
2021/11/10 00:48:21;;;;;;;16.77;10.50;;;12.00;99.90;;;;;;5056288;28;20032;-71
2021/11/10 00:50:47;;;;;;;19.85;10.07;;;12.00;99.90;;;;;;5056292;28;20025;-73
2021/11/10 00:53:13;;;;;;;15.63;9.73;;;12.00;99.90;;;;;;5056227;28;20482;-72
2021/11/10 00:55:41;;;;;;;12.48;8.93;;;12.10;99.90;;;;;;5038100;28;20064;-71
2021/11/10 00:58:08;;;;;;;15.30;9.10;;;12.20;99.90;;;;;;5056374;28;20017;-72
2021/11/10 01:00:34;;;;;;;21.13;11.27;;;12.20;99.90;;;;;;5056357;28;20060;-75
2021/11/10 01:03:00;;;;;;;18.73;9.93;;;12.10;99.90;;;;;;5056021;28;20372;-70
2021/11/10 01:05:27;;;;;;;16.33;9.38;;;12.00;99.90;;;;;;5055992;28;20096;-73
2021/11/10 01:07:55;;;;;;;15.40;10.38;;;11.90;99.90;;;;;;5055886;28;20509;-74
2021/11/10 01:10:21;;;;;;;14.73;10.07;;;11.90;99.90;;;;;;5055904;28;20471;-71
2021/11/10 01:12:47;;;;;;;15.55;9.95;;;11.80;99.90;;;;;;5055893;28;20021;-74
2021/11/10 01:15:13;;;;;;;12.55;9.25;;;11.70;99.90;;;;;;5055723;28;20032;-72
2021/11/10 01:17:39;;;;;;;18.45;10.45;;;11.70;99.90;;;;;;5055700;28;20025;-73
2021/11/10 01:20:07;;;;;;;16.75;10.38;;;11.80;99.90;;;;;;5055954;28;20040;-76
2021/11/10 01:22:33;;;;;;;15.30;9.23;;;11.90;99.90;;;;;;5055660;28;20352;-71
2021/11/10 01:24:59;;;;;;;15.55;9.18;;;12.10;99.90;;;;;;5055602;28;20029;-70
2021/11/10 01:27:25;;;;;;;17.15;11.68;;;12.00;99.90;;;;;;5055602;28;20552;-73
2021/11/10 01:29:51;;;;;;;18.55;13.13;;;12.10;99.90;;;;;;5055559;28;20036;-72
2021/11/10 01:32:16;;;;;;;18.63;13.40;;;11.90;99.90;;;;;;5055486;28;20025;-70
2021/11/10 01:34:42;;;;;;;16.83;10.02;;;12.00;99.90;;;;;;5055406;28;20021;-74
2021/11/10 01:37:08;;;;;;;14.25;9.15;;;11.90;99.90;;;;;;5055316;28;20116;-73
2021/11/10 01:39:34;;;;;;;13.45;9.60;;;11.90;99.90;;;;;;5055319;28;20558;-71
2021/11/10 01:42:05;;;;;;;15.60;10.32;;;12.00;99.90;;;;;;5055308;28;20024;-73
2021/11/10 01:44:34;;;;;;;18.88;11.88;;;12.10;99.90;;;;;;5055547;28;20509;-73
2021/11/10 01:47:04;;;;;;;15.88;11.10;;;11.90;99.90;;;;;;5055238;28;20021;-71
2021/11/10 01:49:30;;;;;;;21.08;10.98;;;12.00;99.90;;;;;;5055467;28;20025;-75
2021/11/10 01:51:58;;;;;;;17.33;10.45;;;12.00;99.90;;;;;;5055670;28;20028;-72
2021/11/10 01:54:27;;;;;;;15.27;10.98;;;11.90;99.90;;;;;;5054502;28;20416;-71
2021/11/10 01:56:53;;;;;;;19.45;11.23;;;12.00;99.90;;;;;;5054525;28;20024;-72
2021/11/10 01:59:28;;;;;;;19.45;12.43;;;12.00;99.90;;;;;;5055016;28;20044;-73
2021/11/10 02:01:54;;;;;;;14.80;10.40;;;11.80;99.90;;;;;;5054947;28;20390;-73
2021/11/10 02:04:20;;;;;;;15.32;9.25;;;11.80;99.90;;;;;;5055144;28;20074;-71
2021/11/10 02:06:45;;;;;;;17.08;9.73;;;11.70;99.90;;;;;;5054861;28;20390;-71
2021/11/10 02:09:11;;;;;;;17.80;10.43;;;11.60;99.90;;;;;;5054738;28;20154;-70
2021/11/10 02:11:39;;;;;;;17.80;10.35;;;11.50;99.90;;;;;;5054574;28;20410;-74
2021/11/10 02:14:04;;;;;;;15.57;9.82;;;11.60;99.90;;;;;;5054944;28;20033;-70
2021/11/10 02:16:31;;;;;;;19.75;9.00;;;11.70;99.90;;;;;;5054866;28;20052;-71
2021/11/10 02:18:56;;;;;;;18.77;9.13;;;11.80;99.90;;;;;;5054883;28;20021;-73
2021/11/10 02:21:24;;;;;;;18.02;9.73;;;11.70;99.90;;;;;;5036669;28;20080;-76
2021/11/10 02:23:50;;;;;;;17.55;10.43;;;11.80;99.90;;;;;;5054539;28;20079;-72
2021/11/10 02:26:22;;;;;;;17.02;9.38;;;11.80;99.90;;;;;;5054463;28;20021;-69
2021/11/10 02:28:49;;;;;;;19.13;9.60;;;11.90;99.90;;;;;;5054942;28;20052;-72
2021/11/10 02:31:16;;;;;;;15.68;8.95;;;11.90;99.90;;;;;;5054598;28;20113;-72
2021/11/10 02:33:43;;;;;;;16.42;9.05;;;12.00;99.90;;;;;;5054893;28;20037;-74
2021/11/10 02:36:09;;;;;;;14.18;9.20;;;12.10;99.90;;;;;;5054748;28;20111;-70
2021/11/10 02:38:35;;;;;;;16.42;8.80;;;12.20;99.90;;;;;;5054248;28;20402;-74
2021/11/10 02:41:01;;;;;;;21.13;10.65;;;12.20;99.90;;;;;;5054225;28;20020;-74
2021/11/10 02:43:28;;;;;;;16.27;10.00;;;12.10;99.90;;;;;;5054672;28;20025;-71
2021/11/10 02:45:55;;;;;;;18.50;10.20;;;12.00;99.90;;;;;;5054109;28;20086;-74
2021/11/10 02:48:21;;;;;;;20.20;10.38;;;11.90;99.90;;;;;;5054042;28;20051;-72
2021/11/10 02:50:48;;;;;;;21.45;10.15;;;11.90;99.90;;;;;;5054263;28;20075;-73
2021/11/10 02:53:14;;;;;;;18.25;9.40;;;12.00;99.90;;;;;;5053927;28;20075;-72
2021/11/10 02:55:40;;;;;;;20.23;10.15;;;11.80;99.90;;;;;;5053822;28;20074;-72
2021/11/10 02:58:06;;;;;;;22.60;10.15;;;11.70;99.90;;;;;;5054137;28;20100;-73
2021/11/10 03:00:32;;;;;;;17.70;8.73;;;11.80;99.90;;;;;;5054367;28;20103;-71
2021/11/10 03:02:59;;;;;;;18.30;9.38;;;11.70;99.90;;;;;;5054049;28;20033;-72
2021/11/10 03:05:25;;;;;;;20.20;8.75;;;11.70;99.90;;;;;;5054261;28;20048;-72
2021/11/10 03:07:51;;;;;;;20.13;10.05;;;11.70;99.90;;;;;;5053670;28;20100;-72
2021/11/10 03:10:18;;;;;;;18.88;9.65;;;11.60;99.90;;;;;;5053429;28;20624;-74
2021/11/10 03:12:44;;;;;;;18.70;8.48;;;11.50;99.90;;;;;;5053928;28;20119;-73
2021/11/10 03:15:11;;;;;;;18.80;8.93;;;11.30;99.90;;;;;;5053561;28;20479;-74
2021/11/10 03:17:37;;;;;;;24.60;9.10;;;11.40;99.90;;;;;;5053478;28;20115;-72
2021/11/10 03:20:06;;;;;;;21.35;10.38;;;11.30;99.90;;;;;;5053773;28;20071;-72
2021/11/10 03:22:31;;;;;;;17.58;8.40;;;11.30;99.90;;;;;;5053454;28;20021;-72
2021/11/10 03:24:57;;;;;;;17.95;9.50;;;11.60;99.90;;;;;;5053427;28;20043;-75
2021/11/10 03:27:23;;;;;;;20.58;9.88;;;11.60;99.90;;;;;;5053403;28;20557;-73
2021/11/10 03:29:51;;;;;;;19.35;9.13;;;11.60;99.90;;;;;;5053878;28;20021;-70
2021/11/10 03:32:20;;;;;;;20.00;10.55;;;11.70;99.90;;;;;;5053600;28;20399;-69
2021/11/10 03:34:47;;;;;;;17.83;10.05;;;11.70;99.90;;;;;;5053611;28;20074;-70
2021/11/10 03:37:14;;;;;;;19.80;10.95;;;11.70;99.90;;;;;;5053459;28;20404;-71
2021/11/10 03:39:40;;;;;;;21.17;11.52;;;11.60;99.90;;;;;;5053293;28;20017;-72
2021/11/10 03:42:06;;;;;;;20.05;10.82;;;11.60;99.90;;;;;;5053439;28;20025;-74
2021/11/10 03:44:31;;;;;;;25.77;10.77;;;11.50;99.90;;;;;;5053081;28;20025;-71
2021/11/10 03:46:57;;;;;;;19.63;10.77;;;11.40;99.90;;;;;;5053388;28;20025;-72
2021/11/10 03:49:25;;;;;;;20.35;11.05;;;11.40;99.90;;;;;;5053135;28;20043;-73
2021/11/10 03:51:52;;;;;;;21.73;11.68;;;11.30;99.90;;;;;;5035659;28;20029;-71
2021/11/10 03:54:19;;;;;;;24.38;11.75;;;11.30;99.90;;;;;;5053068;28;20021;-72
2021/11/10 03:56:45;;;;;;;24.75;10.30;;;11.50;99.90;;;;;;5053220;28;20033;-72
2021/11/10 03:59:12;;;;;;;18.85;10.02;;;11.70;99.90;;;;;;5053003;28;20389;-73
2021/11/10 04:01:38;;;;;;;25.80;12.00;;;11.80;99.90;;;;;;5052959;28;20079;-72
2021/11/10 04:04:04;;;;;;;20.30;10.88;;;11.70;99.90;;;;;;5052941;28;20025;-69
2021/11/10 04:06:31;;;;;;;24.52;12.48;;;11.40;99.90;;;;;;5053469;28;20036;-73
2021/11/10 04:08:57;;;;;;;21.38;11.25;;;11.30;99.90;;;;;;5053116;28;20428;-73
2021/11/10 04:11:23;;;;;;;20.02;10.95;;;11.20;99.90;;;;;;5052680;28;20502;-73
2021/11/10 04:13:50;;;;;;;20.70;10.88;;;11.20;99.90;;;;;;5052870;28;20107;-73
2021/11/10 04:16:20;;;;;;;21.42;11.07;;;11.20;99.90;;;;;;5052776;28;20075;-73
2021/11/10 04:18:51;;;;;;;18.52;10.02;;;11.10;99.90;;;;;;5037377;28;20020;-71
2021/11/10 04:21:18;;;;;;;18.05;9.43;;;11.10;99.90;;;;;;5057126;28;20029;-71
2021/11/10 04:23:45;;;;;;;19.38;11.10;;;11.30;99.90;;;;;;5057073;28;20021;-72
2021/11/10 04:26:12;;;;;;;19.17;10.63;;;11.30;99.90;;;;;;5056620;28;20090;-75
2021/11/10 04:28:37;;;;;;;18.25;9.90;;;11.40;99.90;;;;;;5056693;28;20063;-73
2021/11/10 04:31:03;;;;;;;21.10;10.68;;;11.50;99.90;;;;;;5056653;28;20504;-73
2021/11/10 04:33:29;;;;;;;20.63;9.98;;;11.50;99.90;;;;;;5056622;28;20067;-73
2021/11/10 04:35:55;;;;;;;17.75;9.93;;;11.50;99.90;;;;;;5056753;28;20036;-72
2021/11/10 04:38:21;;;;;;;20.52;10.90;;;11.50;99.90;;;;;;5038618;28;20025;-75
2021/11/10 04:40:47;;;;;;;21.58;9.52;;;11.50;99.90;;;;;;5056481;28;20021;-71
2021/11/10 04:43:13;;;;;;;24.45;11.63;;;11.60;99.90;;;;;;5056692;28;20425;-72
2021/11/10 04:45:40;;;;;;;21.23;11.02;;;11.40;99.90;;;;;;5056686;28;20056;-74
2021/11/10 04:48:07;;;;;;;18.77;10.90;;;11.20;99.90;;;;;;5056832;28;20018;-73
2021/11/10 04:50:33;;;;;;;19.38;10.07;;;11.20;99.90;;;;;;5056591;28;20025;-71
2021/11/10 04:53:00;;;;;;;18.73;11.07;;;11.10;99.90;;;;;;5056246;28;20013;-73
2021/11/10 04:55:26;;;;;;;21.33;11.75;;;11.10;99.90;;;;;;5056136;28;20025;-71
2021/11/10 04:57:52;;;;;;;18.42;9.40;;;11.00;99.90;;;;;;5056182;28;20021;-72
2021/11/10 05:00:18;;;;;;;16.92;10.88;;;11.10;99.90;;;;;;5056116;28;20025;-72
2021/11/10 05:02:43;;;;;;;20.15;10.27;;;11.20;99.90;;;;;;5056066;28;20394;-72
2021/11/10 05:05:09;;;;;;;17.52;10.68;;;11.10;99.90;;;;;;5056535;28;20056;-72
2021/11/10 05:07:35;;;;;;;18.83;10.77;;;11.10;99.90;;;;;;5055892;28;20025;-71
2021/11/10 05:10:02;;;;;;;24.83;11.27;;;11.10;99.90;;;;;;5056223;28;20053;-71
2021/11/10 05:12:28;;;;;;;16.85;9.80;;;11.10;99.90;;;;;;5055704;28;20090;-72
2021/11/10 05:14:58;;;;;;;20.05;10.98;;;11.00;99.90;;;;;;5056105;28;20064;-71
2021/11/10 05:17:25;;;;;;;26.00;11.33;;;10.80;99.90;;;;;;5055995;28;20025;-72
2021/11/10 05:19:51;;;;;;;18.75;9.07;;;10.80;99.90;;;;;;5055712;28;20290;-72
2021/11/10 05:22:16;;;;;;;24.15;10.18;;;10.80;99.90;;;;;;5055701;28;20017;-71
2021/11/10 05:24:42;;;;;;;16.95;9.43;;;10.90;99.90;;;;;;5055646;28;20021;-72
2021/11/10 05:27:08;;;;;;;16.92;8.88;;;10.80;99.90;;;;;;5055593;28;20032;-72
2021/11/10 05:29:34;;;;;;;14.20;9.02;;;10.70;99.90;;;;;;5055362;28;20100;-74
2021/11/10 05:32:00;;;;;;;19.73;9.20;;;10.60;99.90;;;;;;5055755;28;20025;-73
2021/11/10 05:34:26;;;;;;;18.58;9.13;;;10.60;99.90;;;;;;5055438;28;20021;-73
2021/11/10 05:36:51;;;;;;;20.25;9.55;;;10.90;99.90;;;;;;5037464;28;20079;-74
2021/11/10 05:39:17;;;;;;;11.52;7.63;;;10.90;99.90;;;;;;5055363;28;20105;-73
2021/11/10 05:41:44;;;;;;;13.18;8.02;;;10.80;99.90;;;;;;5055379;28;20028;-71
2021/11/10 05:44:11;;;;;;;18.52;9.27;;;10.80;99.90;;;;;;5055288;28;20021;-71
2021/11/10 05:46:38;;;;;;;17.45;9.10;;;10.80;99.90;;;;;;5055510;28;20025;-69
2021/11/10 05:49:03;;;;;;;15.27;9.15;;;10.80;99.90;;;;;;5055246;28;20100;-72
2021/11/10 05:51:29;;;;;;;14.05;8.38;;;10.90;99.90;;;;;;5055474;28;20513;-70
2021/11/10 05:53:55;;;;;;;33.45;10.13;;;10.90;99.90;;;;;;5055624;28;20021;-73
2021/11/10 05:56:23;;;;;;;17.08;9.80;;;10.80;99.90;;;;;;5054984;28;20021;-72
2021/11/10 05:58:50;;;;;;;18.48;9.05;;;10.70;99.90;;;;;;5055281;28;20146;-72
2021/11/10 06:01:16;;;;;;;20.42;9.93;;;10.50;99.90;;;;;;5055033;28;20049;-74
2021/11/10 06:03:41;;;;;;;20.63;8.88;;;10.40;99.90;;;;;;5054921;28;20083;-70
2021/11/10 06:06:07;;;;;;;19.25;8.80;;;10.40;99.90;;;;;;5054862;28;20025;-73
2021/11/10 06:08:37;;;;;;;15.43;9.25;;;10.50;99.90;;;;;;5054757;28;20099;-74
2021/11/10 06:11:10;;;;;;;21.37;9.03;;;10.20;99.90;;;;;;5054581;28;20510;-72
2021/11/10 06:13:36;;;;;;;15.90;8.65;;;10.20;99.90;;;;;;5054725;28;20083;-71
2021/11/10 06:16:03;;;;;;;13.15;8.40;;;10.40;99.90;;;;;;5055152;28;20025;-68
2021/11/10 06:18:29;;;;;;;14.45;8.00;;;10.40;99.90;;;;;;5055230;28;20413;-70
2021/11/10 06:20:59;;;;;;;18.10;10.85;;;10.50;99.90;;;;;;5054866;28;20025;-72
2021/11/10 06:23:25;;;;;;;16.05;8.70;;;10.50;99.90;;;;;;5055155;28;20025;-73
2021/11/10 06:25:51;;;;;;;20.00;8.52;;;10.50;99.90;;;;;;5055005;28;20040;-71
2021/11/10 06:28:16;;;;;;;15.65;10.15;;;10.50;99.90;;;;;;5054978;28;20021;-71
2021/11/10 06:30:42;;;;;;;15.43;8.95;;;10.40;99.90;;;;;;5054919;28;20043;-73
2021/11/10 06:33:08;;;;;;;14.35;9.15;;;10.40;99.90;;;;;;5054628;28;20032;-72
2021/11/10 06:35:34;;;;;;;14.70;9.43;;;10.40;99.90;;;;;;5054794;28;20032;-73
2021/11/10 06:38:00;;;;;;;17.55;9.38;;;10.30;99.90;;;;;;5054265;28;20047;-72
2021/11/10 06:40:26;;;;;;;14.80;8.85;;;10.00;99.90;;;;;;5054005;28;20025;-73
2021/11/10 06:42:51;;;;;;;16.38;8.57;;;9.90;99.90;;;;;;5054037;28;20018;-71
2021/11/10 06:45:17;;;;;;;14.23;7.97;;;10.10;99.90;;;;;;5054392;28;20021;-73
2021/11/10 06:47:43;;;;;;;16.88;9.52;;;10.30;99.90;;;;;;5054038;28;20422;-70
2021/11/10 06:50:10;;;;;;;18.20;8.80;;;10.20;99.90;;;;;;5054057;28;20059;-73
2021/11/10 06:52:35;;;;;;;19.10;9.57;;;10.20;99.90;;;;;;5054292;28;20021;-71
2021/11/10 06:55:02;;;;;;;16.58;8.52;;;10.30;99.90;;;;;;5053906;28;20039;-71
2021/11/10 06:57:27;;;;;;;15.10;8.68;;;10.30;99.90;;;;;;5053848;28;20364;-74
2021/11/10 06:59:53;;;;;;;18.23;9.77;;;10.40;99.90;;;;;;5053853;28;20025;-70
2021/11/10 07:02:19;;;;;;;13.45;8.43;;;10.30;99.90;;;;;;5053795;28;20025;-74
2021/11/10 07:04:45;;;;;;;14.65;8.13;;;10.10;99.90;;;;;;5053752;28;20037;-73
2021/11/10 07:07:10;;;;;;;16.35;9.70;;;10.10;99.90;;;;;;5053623;28;20021;-71
2021/11/10 07:09:36;;;;;;;21.70;10.30;;;10.00;99.90;;;;;;5053687;28;20055;-72
2021/11/10 07:12:02;;;;;;;18.10;8.90;;;10.00;99.90;;;;;;5053276;28;20131;-74
2021/11/10 07:14:28;;;;;;;17.40;9.38;;;10.00;99.90;;;;;;5053854;28;20483;-73
2021/11/10 07:16:55;;;;;;;16.02;8.65;;;10.20;99.90;;;;;;5053766;28;20032;-71
2021/11/10 07:19:21;;;;;;;14.70;7.65;;;10.30;99.90;;;;;;5053530;28;20425;-72
2021/11/10 07:21:47;;;;;;;18.88;9.35;;;10.40;99.90;;;;;;5053716;28;20047;-72
2021/11/10 07:24:13;;;;;;;19.58;9.18;;;10.40;99.90;;;;;;5053476;28;20474;-72
2021/11/10 07:26:38;;;;;;;16.20;9.13;;;10.30;99.90;;;;;;5053409;28;20032;-72
2021/11/10 07:29:04;;;;;;;16.30;9.20;;;10.40;99.90;;;;;;5053311;28;20036;-71
2021/11/10 07:31:30;;;;;;;18.42;9.50;;;10.30;99.90;;;;;;5053356;28;20021;-73
2021/11/10 07:33:59;;;;;;;14.02;9.05;;;10.40;99.90;;;;;;5053846;28;20029;-72
2021/11/10 07:36:25;;;;;;;16.02;10.25;;;10.40;99.90;;;;;;5035359;28;20025;-73
2021/11/10 07:38:51;;;;;;;17.02;9.13;;;10.40;99.90;;;;;;5053488;28;20513;-76
2021/11/10 07:41:18;;;;;;;16.73;9.57;;;10.20;99.90;;;;;;5053251;28;20025;-72
2021/11/10 07:43:44;;;;;;;13.80;9.02;;;10.20;99.90;;;;;;5035300;28;20433;-73
2021/11/10 07:46:15;;;;;;;18.15;9.40;;;10.30;99.90;;;;;;5053158;28;20502;-72
2021/11/10 07:48:42;;;;;;;14.15;8.77;;;10.60;99.90;;;;;;5053139;28;20028;-76
2021/11/10 07:51:09;;;;;;;21.40;11.73;;;10.60;99.90;;;;;;5053378;28;20383;-78
2021/11/10 07:53:35;;;;;;;20.00;10.80;;;10.70;99.90;;;;;;5052101;28;20021;-75
2021/11/10 07:56:02;;;;;;;19.98;11.93;;;10.40;99.90;;;;;;5052960;28;20063;-75
2021/11/10 07:58:28;;;;;;;22.65;12.23;;;10.40;99.90;;;;;;5053330;28;20083;-76
2021/11/10 08:00:53;;;;;;;21.75;12.50;;;10.40;99.90;;;;;;5053278;28;20021;-77
2021/11/10 08:03:19;;;;;;;21.65;13.65;;;10.50;99.90;;;;;;5052953;28;20078;-76
2021/11/10 08:05:45;;;;;;;21.08;14.13;;;10.40;99.90;;;;;;5053230;28;20356;-77
2021/11/10 08:08:10;;;;;;;23.98;13.63;;;10.30;99.90;;;;;;5053162;28;20100;-74
2021/11/10 08:10:36;;;;;;;21.77;12.23;;;10.30;99.90;;;;;;5052719;28;20073;-74
2021/11/10 08:13:02;;;;;;;22.48;13.05;;;10.40;99.90;;;;;;5053431;28;20021;-74
2021/11/10 08:18:13;;;;;;;28.10;12.10;;;10.50;99.90;;;;;;4286447;23;22132;-73
2021/11/10 08:20:38;;;;;;;22.00;12.68;;;10.70;99.90;;;;;;5013503;28;20546;-74
2021/11/10 08:23:04;;;;;;;21.88;13.00;;;10.70;99.90;;;;;;5013252;28;20129;-74
2021/11/10 08:25:30;;;;;;;18.95;12.90;;;10.80;99.90;;;;;;5013211;28;20029;-72
2021/11/10 08:27:56;;;;;;;19.35;12.82;;;10.70;99.90;;;;;;5013175;28;20049;-73
2021/11/10 08:30:23;;;;;;;25.73;14.32;;;10.80;99.90;;;;;;5013126;28;20080;-74
2021/11/10 08:32:52;;;;;;;19.23;13.00;;;10.80;99.90;;;;;;5013405;28;20022;-73
2021/11/10 08:35:18;;;;;;;19.23;12.25;;;10.70;99.90;;;;;;5013119;28;20030;-71
2021/11/10 08:37:45;;;;;;;19.30;12.90;;;10.90;99.90;;;;;;5012993;28;20026;-72
2021/11/10 08:40:12;;;;;;;19.83;13.07;;;10.90;99.90;;;;;;5013038;28;20030;-74
2021/11/10 08:42:38;;;;;;;19.92;12.30;;;11.00;99.90;;;;;;5013012;28;20065;-73
2021/11/10 08:45:10;;;;;;;26.50;13.27;;;11.00;99.90;;;;;;5013005;28;20021;-71
2021/11/10 08:47:37;;;;;;;22.35;12.90;;;11.20;99.90;;;;;;5013023;28;20022;-73
2021/11/10 08:50:07;;;;;;;26.30;13.27;;;11.00;99.90;;;;;;5012923;28;20116;-72
2021/11/10 08:52:34;;;;;;;;;;;11.20;99.90;;;;;;5013672;28;20026;-74
2021/11/10 08:54:59;;;;;;;21.50;12.10;;;11.20;99.90;;;;;;5012976;28;19912;-74
2021/11/10 08:57:26;;;;;;;21.90;11.63;;;11.10;99.90;;;;;;5012809;28;20029;-71
2021/11/10 08:59:52;;;;;;;21.02;12.27;;;11.20;99.90;;;;;;5013113;28;20490;-73
2021/11/10 09:02:18;;;;;;;24.90;10.75;;;11.30;99.90;;;;;;5013124;28;20018;-73
2021/11/10 09:04:43;;;;;;;27.10;12.32;;;11.40;99.90;;;;;;5014181;28;20026;-73
2021/11/10 09:07:09;;;;;;;18.35;11.07;;;11.60;99.90;;;;;;5016307;28;20403;-74
2021/11/10 09:09:36;;;;;;;17.77;12.35;;;11.90;99.90;;;;;;5016551;28;20058;-72
2021/11/10 09:12:02;;;;;;;20.83;13.02;;;12.70;99.90;;;;;;5016198;28;20022;-72
2021/11/10 09:14:27;;;;;;;35.20;14.82;;;13.10;99.90;;;;;;5016198;28;20029;-75
2021/11/10 09:16:53;;;;;;;24.85;13.35;;;13.30;99.90;;;;;;5016310;28;20439;-72
2021/11/10 09:19:19;;;;;;;22.02;13.27;;;13.10;99.90;;;;;;5034703;28;20041;-76
2021/11/10 09:21:45;;;;;;;16.38;12.52;;;12.90;99.90;;;;;;5055712;28;20017;-74
2021/11/10 09:24:10;;;;;;;23.20;12.70;;;13.40;99.90;;;;;;5055678;28;20107;-74
2021/11/10 09:26:37;;;;;;;20.30;12.50;;;13.40;99.90;;;;;;5055915;28;20075;-74
2021/11/10 09:29:04;;;;;;;24.20;12.85;;;13.50;99.90;;;;;;5055859;28;20017;-76
2021/11/10 09:31:30;;;;;;;20.40;13.23;;;13.20;99.90;;;;;;5055557;28;20098;-75
2021/11/10 09:34:03;;;;;;;21.15;12.45;;;13.10;99.90;;;;;;5055829;28;20049;-73
2021/11/10 09:36:29;;;;;;;22.92;12.95;;;13.70;99.90;;;;;;5055749;28;20413;-75
2021/11/10 09:38:55;;;;;;;21.52;12.60;;;13.60;99.90;;;;;;5055695;28;20025;-73
2021/11/10 09:41:22;;;;;;;17.52;12.18;;;13.40;99.90;;;;;;5055272;28;20025;-71
2021/11/10 09:43:48;;;;;;;23.05;13.73;;;13.20;99.90;;;;;;5055302;28;20075;-75
2021/11/10 09:46:14;;;;;;;22.38;12.23;;;13.10;99.90;;;;;;5055552;28;20029;-72
2021/11/10 09:48:41;;;;;;;20.92;11.75;;;13.20;99.90;;;;;;5055259;28;20105;-75
2021/11/10 09:51:07;;;;;;;18.98;11.52;;;13.40;99.90;;;;;;5055229;28;20025;-74
2021/11/10 09:53:35;;;;;;;16.95;11.25;;;13.10;99.90;;;;;;5037233;28;20417;-72
2021/11/10 09:56:02;;;;;;;19.42;11.25;;;13.00;99.90;;;;;;5054987;28;20057;-73
2021/11/10 09:58:30;;;;;;;20.65;11.30;;;13.00;99.90;;;;;;5055329;28;20025;-72
2021/11/10 10:01:04;;;;;;;21.58;11.25;;;12.80;99.90;;;;;;5055005;28;20390;-71
2021/11/10 10:03:30;;;;;;;17.88;9.98;;;12.90;99.90;;;;;;5055300;28;20009;-74
2021/11/10 10:05:56;;;;;;;21.08;10.32;;;13.00;99.90;;;;;;5054911;28;20032;-74
2021/11/10 10:08:23;;;;;;;17.70;11.07;;;13.00;99.90;;;;;;5054893;28;20021;-74
2021/11/10 10:10:50;;;;;;;19.23;10.70;;;12.90;99.90;;;;;;5054843;28;20398;-74
2021/11/10 10:13:17;;;;;;;19.77;10.77;;;13.00;99.90;;;;;;5054833;28;20478;-72
2021/11/10 10:15:44;;;;;;;17.65;10.25;;;13.10;99.90;;;;;;5054127;28;20386;-73
2021/11/10 10:18:25;;;;;;;23.58;10.50;;;12.90;99.90;;;;;;5054526;28;20025;-75
2021/11/10 10:20:54;;;;;;;20.58;10.30;;;12.90;99.90;;;;;;5054952;28;20068;-73
2021/11/10 10:23:21;;;;;;;18.35;10.85;;;12.80;99.90;;;;;;5054880;28;20104;-73
2021/11/10 10:25:48;;;;;;;22.38;11.15;;;12.70;99.90;;;;;;5054844;28;20021;-74
2021/11/10 10:28:20;;;;;;;25.63;12.35;;;12.80;99.90;;;;;;5054510;28;20505;-73
2021/11/10 10:30:49;;;;;;;21.00;11.98;;;12.70;99.90;;;;;;5054728;28;20543;-72
2021/11/10 10:33:21;;;;;;;22.48;12.32;;;12.80;99.90;;;;;;5054664;28;20020;-74
2021/11/10 10:35:58;;;;;;;19.55;11.05;;;12.80;99.90;;;;;;5054868;28;20482;-74
2021/11/10 10:38:32;;;;;;;25.95;11.93;;;13.00;99.90;;;;;;5054328;28;20013;-74
2021/11/10 10:41:01;;;;;;;20.83;11.43;;;12.90;99.90;;;;;;5054349;28;20386;-73
2021/11/10 10:43:28;;;;;;;26.58;13.30;;;12.80;99.90;;;;;;5054490;28;20067;-71
2021/11/10 10:45:56;;;;;;;17.90;10.85;;;13.00;99.90;;;;;;5054145;28;20115;-74
2021/11/10 10:48:30;;;;;;;16.23;10.55;;;13.10;99.90;;;;;;5054148;28;20100;-74
2021/11/10 10:51:03;;;;;;;20.92;11.70;;;13.00;99.90;;;;;;5054430;28;20040;-71
2021/11/10 10:53:38;;;;;;;19.80;10.77;;;13.00;99.90;;;;;;5054342;28;20013;-74
2021/11/10 10:56:21;;;;;;;20.08;11.38;;;13.10;99.90;;;;;;5054183;28;20032;-74
2021/11/10 10:59:00;;;;;;;29.58;11.95;;;13.00;99.90;;;;;;5054562;28;20021;-74
2021/11/10 11:01:29;;;;;;;19.42;11.13;;;13.00;99.90;;;;;;5053939;28;20103;-73
2021/11/10 11:04:13;;;;;;;23.52;10.75;;;13.00;99.90;;;;;;5054120;28;20117;-72
2021/11/10 11:06:46;;;;;;;22.88;11.25;;;13.20;99.90;;;;;;5054081;28;20037;-74
2021/11/10 11:09:20;;;;;;;26.10;11.55;;;13.30;99.90;;;;;;5053750;28;20024;-72
2021/11/10 11:12:16;;;;;;;22.15;10.52;;;13.20;99.90;;;;;;5053991;28;20447;-72
2021/11/10 11:14:59;;;;;;;18.60;10.35;;;13.30;99.90;;;;;;5053942;28;20021;-74
2021/11/10 11:17:29;;;;;;;19.38;10.32;;;13.30;99.90;;;;;;5053696;28;20025;-70
2021/11/10 11:20:22;;;;;;;19.13;9.48;;;13.10;99.90;;;;;;5053371;28;20043;-72
2021/11/10 11:22:52;;;;;;;17.45;9.50;;;13.10;99.90;;;;;;5049085;28;20036;-74
2021/11/10 11:25:39;;;;;;;20.08;10.40;;;12.90;99.90;;;;;;5053513;28;20115;-72
2021/11/10 11:28:13;;;;;;;19.63;10.70;;;13.00;99.90;;;;;;5053246;28;20056;-72
2021/11/10 11:30:38;;;;;;;23.38;10.95;;;13.00;99.90;;;;;;5053670;28;20031;-71
2021/11/10 11:33:11;;;;;;;20.25;10.23;;;12.90;99.90;;;;;;5053872;28;20056;-72
2021/11/10 11:35:40;;;;;;;21.17;10.77;;;12.80;99.90;;;;;;5053363;28;20491;-74
2021/11/10 11:38:09;;;;;;;16.98;9.77;;;12.90;99.90;;;;;;5053539;28;20025;-73
2021/11/10 11:40:36;;;;;;;21.05;9.43;;;12.90;99.90;;;;;;5053244;28;20045;-71
2021/11/10 11:43:06;;;;;;;14.93;9.15;;;13.10;99.90;;;;;;5053733;28;20017;-73
2021/11/10 11:45:34;;;;;;;;;;;13.20;99.90;;;;;;5053935;28;20017;-72
2021/11/10 11:48:01;;;;;;;13.18;6.90;;;13.20;99.90;;;;;;5053143;28;19912;-74
2021/11/10 11:50:28;;;;;;;15.32;7.55;;;13.10;99.90;;;;;;5053398;28;20029;-72
2021/11/10 11:52:54;;;;;;;19.80;7.60;;;13.00;99.90;;;;;;5053063;28;20021;-73
2021/11/10 11:55:35;;;;;;;27.02;6.97;;;13.10;99.90;;;;;;5035234;28;20036;-74
2021/11/10 11:58:08;;;;;;;14.00;6.38;;;13.20;99.90;;;;;;5053236;28;20546;-74
2021/11/10 12:00:57;;;;;;;15.10;6.47;;;13.00;99.90;;;;;;5053086;28;20017;-73
2021/11/10 12:03:34;;;;;;;14.97;6.27;;;13.20;99.90;;;;;;5053645;28;20013;-74
2021/11/10 12:06:03;;;;;;;13.63;6.40;;;13.20;99.90;;;;;;5053318;28;20278;-74
2021/11/10 12:08:46;;;;;;;14.10;6.57;;;13.20;99.90;;;;;;5052975;28;20029;-72
2021/11/10 12:11:32;;;;;;;13.23;5.28;;;13.30;99.90;;;;;;5053294;28;20029;-73
2021/11/10 12:14:10;;;;;;;14.52;6.05;;;13.20;99.90;;;;;;5052700;28;20474;-71
2021/11/10 12:16:46;;;;;;;15.05;5.95;;;13.20;99.90;;;;;;5053271;28;20028;-73
2021/11/10 12:19:34;;;;;;;12.95;5.93;;;13.10;99.90;;;;;;5052828;28;20045;-72
2021/11/10 12:22:32;;;;;;;13.30;5.95;;;13.10;99.90;;;;;;5052903;28;20075;-74
2021/11/10 12:25:03;;;;;;;11.25;5.53;;;13.00;99.90;;;;;;5033247;28;20033;-75
2021/11/10 12:27:31;;;;;;;13.98;6.25;;;13.00;99.90;;;;;;5053123;28;20401;-74
2021/11/10 12:30:00;;;;;;;11.57;5.10;;;13.20;99.90;;;;;;5053061;28;20478;-71
2021/11/10 12:32:43;;;;;;;12.85;6.40;;;13.20;99.90;;;;;;5053300;28;20047;-72
2021/11/10 12:35:20;;;;;;;13.65;6.20;;;13.20;99.90;;;;;;5052741;28;20032;-74
2021/11/10 12:37:49;;;;;;;14.95;6.38;;;13.20;99.90;;;;;;5052968;28;20100;-73
2021/11/10 12:40:25;;;;;;;13.60;6.63;;;13.10;99.90;;;;;;5054926;28;20563;-71